sensor_id;sensor_type;location;lat;lon;timestamp;P1;durP1;ratioP1;P2;durP2;ratioP2
2111;SDS011;1062;52.538;13.400;2023-02-28T00:00:20;10.40;;;6.87;;
2111;SDS011;1062;52.538;13.400;2023-02-28T00:02:46;7.37;;;5.57;;
2111;SDS011;1062;52.538;13.400;2023-02-28T00:05:16;5.20;;;4.70;;
2111;SDS011;1062;52.538;13.400;2023-02-28T00:07:43;7.80;;;4.27;;
2111;SDS011;1062;52.538;13.400;2023-02-28T00:10:10;6.60;;;4.20;;
2111;SDS011;1062;52.538;13.400;2023-02-28T00:12:37;7.40;;;4.23;;
2111;SDS011;1062;52.538;13.400;2023-02-28T00:15:06;4.57;;;3.47;;
2111;SDS011;1062;52.538;13.400;2023-02-28T00:17:34;2.30;;;2.10;;
2111;SDS011;1062;52.538;13.400;2023-02-28T00:20:00;3.70;;;3.20;;
2111;SDS011;1062;52.538;13.400;2023-02-28T00:22:29;5.87;;;3.10;;
2111;SDS011;1062;52.538;13.400;2023-02-28T00:24:55;3.60;;;2.37;;
2111;SDS011;1062;52.538;13.400;2023-02-28T00:27:20;3.47;;;2.73;;
2111;SDS011;1062;52.538;13.400;2023-02-28T00:29:46;5.20;;;2.67;;
2111;SDS011;1062;52.538;13.400;2023-02-28T00:32:12;5.60;;;2.70;;
2111;SDS011;1062;52.538;13.400;2023-02-28T00:34:38;5.13;;;2.87;;
2111;SDS011;1062;52.538;13.400;2023-02-28T00:37:05;2.90;;;2.60;;
2111;SDS011;1062;52.538;13.400;2023-02-28T00:39:31;4.30;;;2.60;;
2111;SDS011;1062;52.538;13.400;2023-02-28T00:41:58;3.60;;;2.93;;
2111;SDS011;1062;52.538;13.400;2023-02-28T00:44:23;5.53;;;2.40;;
2111;SDS011;1062;52.538;13.400;2023-02-28T00:46:49;6.27;;;3.73;;
2111;SDS011;1062;52.538;13.400;2023-02-28T00:49:14;3.03;;;2.83;;
2111;SDS011;1062;52.538;13.400;2023-02-28T00:51:40;4.10;;;3.70;;
2111;SDS011;1062;52.538;13.400;2023-02-28T00:54:05;7.40;;;3.40;;
2111;SDS011;1062;52.538;13.400;2023-02-28T00:56:31;4.30;;;3.10;;
2111;SDS011;1062;52.538;13.400;2023-02-28T00:58:57;6.37;;;2.50;;
2111;SDS011;1062;52.538;13.400;2023-02-28T01:01:22;3.10;;;2.73;;
2111;SDS011;1062;52.538;13.400;2023-02-28T01:03:48;4.17;;;2.63;;
2111;SDS011;1062;52.538;13.400;2023-02-28T01:06:13;6.03;;;3.30;;
2111;SDS011;1062;52.538;13.400;2023-02-28T01:08:39;3.07;;;2.77;;
2111;SDS011;1062;52.538;13.400;2023-02-28T01:11:11;3.00;;;2.67;;
2111;SDS011;1062;52.538;13.400;2023-02-28T01:13:39;6.73;;;3.13;;
2111;SDS011;1062;52.538;13.400;2023-02-28T01:16:05;3.20;;;2.60;;
2111;SDS011;1062;52.538;13.400;2023-02-28T01:18:31;5.73;;;2.73;;
2111;SDS011;1062;52.538;13.400;2023-02-28T01:20:57;4.97;;;3.97;;
2111;SDS011;1062;52.538;13.400;2023-02-28T01:23:23;4.13;;;3.23;;
2111;SDS011;1062;52.538;13.400;2023-02-28T01:25:49;4.70;;;2.93;;
2111;SDS011;1062;52.538;13.400;2023-02-28T01:28:15;5.53;;;3.47;;
2111;SDS011;1062;52.538;13.400;2023-02-28T01:30:41;6.57;;;2.97;;
2111;SDS011;1062;52.538;13.400;2023-02-28T01:33:07;3.27;;;2.50;;
2111;SDS011;1062;52.538;13.400;2023-02-28T01:35:33;5.53;;;3.33;;
2111;SDS011;1062;52.538;13.400;2023-02-28T01:37:59;3.57;;;3.27;;
2111;SDS011;1062;52.538;13.400;2023-02-28T01:40:24;6.10;;;2.63;;
2111;SDS011;1062;52.538;13.400;2023-02-28T01:42:50;3.60;;;2.63;;
2111;SDS011;1062;52.538;13.400;2023-02-28T01:45:21;5.27;;;3.27;;
2111;SDS011;1062;52.538;13.400;2023-02-28T01:47:51;2.80;;;2.60;;
2111;SDS011;1062;52.538;13.400;2023-02-28T01:50:20;5.77;;;3.00;;
2111;SDS011;1062;52.538;13.400;2023-02-28T01:52:50;7.63;;;3.90;;
2111;SDS011;1062;52.538;13.400;2023-02-28T01:55:19;7.10;;;4.10;;
2111;SDS011;1062;52.538;13.400;2023-02-28T01:57:51;3.63;;;3.10;;
2111;SDS011;1062;52.538;13.400;2023-02-28T02:00:20;5.63;;;3.03;;
2111;SDS011;1062;52.538;13.400;2023-02-28T02:02:49;4.83;;;3.10;;
2111;SDS011;1062;52.538;13.400;2023-02-28T02:05:21;5.70;;;5.10;;
2111;SDS011;1062;52.538;13.400;2023-02-28T02:07:49;3.77;;;3.07;;
2111;SDS011;1062;52.538;13.400;2023-02-28T02:10:20;4.70;;;3.17;;
2111;SDS011;1062;52.538;13.400;2023-02-28T02:18:28;4.77;;;3.50;;
2111;SDS011;1062;52.538;13.400;2023-02-28T02:29:54;5.57;;;3.43;;
2111;SDS011;1062;52.538;13.400;2023-02-28T02:35:26;5.20;;;3.33;;
2111;SDS011;1062;52.538;13.400;2023-02-28T02:40:50;3.90;;;3.17;;
2111;SDS011;1062;52.538;13.400;2023-02-28T02:43:28;4.70;;;3.53;;
2111;SDS011;1062;52.538;13.400;2023-02-28T02:46:02;4.63;;;3.60;;
2111;SDS011;1062;52.538;13.400;2023-02-28T02:48:34;3.70;;;3.10;;
2111;SDS011;1062;52.538;13.400;2023-02-28T02:51:04;5.17;;;3.77;;
2111;SDS011;1062;52.538;13.400;2023-02-28T02:53:40;5.27;;;3.60;;
2111;SDS011;1062;52.538;13.400;2023-02-28T02:56:11;4.83;;;4.33;;
2111;SDS011;1062;52.538;13.400;2023-02-28T02:58:40;6.00;;;3.90;;
2111;SDS011;1062;52.538;13.400;2023-02-28T03:01:08;4.13;;;2.60;;
2111;SDS011;1062;52.538;13.400;2023-02-28T03:03:37;6.33;;;3.57;;
2111;SDS011;1062;52.538;13.400;2023-02-28T03:06:03;3.97;;;3.00;;
2111;SDS011;1062;52.538;13.400;2023-02-28T03:08:33;4.80;;;4.30;;
2111;SDS011;1062;52.538;13.400;2023-02-28T03:11:02;3.40;;;3.10;;
2111;SDS011;1062;52.538;13.400;2023-02-28T03:18:53;5.47;;;3.43;;
2111;SDS011;1062;52.538;13.400;2023-02-28T03:26:45;7.00;;;4.00;;
2111;SDS011;1062;52.538;13.400;2023-02-28T03:29:24;10.40;;;3.90;;
2111;SDS011;1062;52.538;13.400;2023-02-28T03:31:59;5.90;;;4.20;;
2111;SDS011;1062;52.538;13.400;2023-02-28T03:34:39;7.20;;;4.43;;
2111;SDS011;1062;52.538;13.400;2023-02-28T03:37:15;3.27;;;2.97;;
2111;SDS011;1062;52.538;13.400;2023-02-28T03:39:48;4.27;;;3.40;;
2111;SDS011;1062;52.538;13.400;2023-02-28T03:42:31;6.37;;;4.07;;
2111;SDS011;1062;52.538;13.400;2023-02-28T03:45:03;5.33;;;3.90;;
2111;SDS011;1062;52.538;13.400;2023-02-28T03:47:35;5.67;;;3.90;;
2111;SDS011;1062;52.538;13.400;2023-02-28T03:50:13;6.43;;;5.80;;
2111;SDS011;1062;52.538;13.400;2023-02-28T03:52:56;5.50;;;4.10;;
2111;SDS011;1062;52.538;13.400;2023-02-28T03:55:30;10.13;;;6.10;;
2111;SDS011;1062;52.538;13.400;2023-02-28T04:00:47;10.30;;;6.00;;
2111;SDS011;1062;52.538;13.400;2023-02-28T04:03:19;8.50;;;5.23;;
2111;SDS011;1062;52.538;13.400;2023-02-28T04:05:46;10.13;;;6.37;;
2111;SDS011;1062;52.538;13.400;2023-02-28T04:08:16;9.90;;;6.40;;
2111;SDS011;1062;52.538;13.400;2023-02-28T04:10:42;6.73;;;5.93;;
2111;SDS011;1062;52.538;13.400;2023-02-28T04:13:14;10.60;;;5.40;;
2111;SDS011;1062;52.538;13.400;2023-02-28T04:15:39;7.17;;;4.83;;
2111;SDS011;1062;52.538;13.400;2023-02-28T04:18:06;6.33;;;5.23;;
2111;SDS011;1062;52.538;13.400;2023-02-28T04:20:31;5.20;;;4.00;;
2111;SDS011;1062;52.538;13.400;2023-02-28T04:22:57;6.57;;;4.60;;
2111;SDS011;1062;52.538;13.400;2023-02-28T04:25:22;6.33;;;4.57;;
2111;SDS011;1062;52.538;13.400;2023-02-28T04:27:48;8.10;;;5.53;;
2111;SDS011;1062;52.538;13.400;2023-02-28T04:30:14;4.70;;;4.30;;
2111;SDS011;1062;52.538;13.400;2023-02-28T04:32:39;6.87;;;4.90;;
2111;SDS011;1062;52.538;13.400;2023-02-28T04:35:05;4.43;;;3.70;;
2111;SDS011;1062;52.538;13.400;2023-02-28T04:37:31;6.83;;;4.03;;
2111;SDS011;1062;52.538;13.400;2023-02-28T04:39:59;5.20;;;4.70;;
2111;SDS011;1062;52.538;13.400;2023-02-28T04:42:26;7.63;;;4.37;;
2111;SDS011;1062;52.538;13.400;2023-02-28T04:44:51;5.20;;;4.40;;
2111;SDS011;1062;52.538;13.400;2023-02-28T04:47:17;4.30;;;3.83;;
2111;SDS011;1062;52.538;13.400;2023-02-28T04:49:42;9.63;;;5.43;;
2111;SDS011;1062;52.538;13.400;2023-02-28T04:52:08;6.00;;;3.80;;
2111;SDS011;1062;52.538;13.400;2023-02-28T04:54:35;8.33;;;4.60;;
2111;SDS011;1062;52.538;13.400;2023-02-28T04:57:00;6.63;;;4.57;;
2111;SDS011;1062;52.538;13.400;2023-02-28T04:59:26;8.10;;;4.70;;
2111;SDS011;1062;52.538;13.400;2023-02-28T05:01:52;6.00;;;4.90;;
2111;SDS011;1062;52.538;13.400;2023-02-28T05:04:17;8.53;;;5.10;;
2111;SDS011;1062;52.538;13.400;2023-02-28T05:06:43;10.03;;;6.20;;
2111;SDS011;1062;52.538;13.400;2023-02-28T05:09:09;11.23;;;5.90;;
2111;SDS011;1062;52.538;13.400;2023-02-28T05:11:38;4.97;;;4.57;;
2111;SDS011;1062;52.538;13.400;2023-02-28T05:14:06;6.83;;;5.20;;
2111;SDS011;1062;52.538;13.400;2023-02-28T05:16:34;9.87;;;6.00;;
2111;SDS011;1062;52.538;13.400;2023-02-28T05:19:00;15.37;;;5.90;;
2111;SDS011;1062;52.538;13.400;2023-02-28T05:21:27;10.73;;;6.67;;
2111;SDS011;1062;52.538;13.400;2023-02-28T05:23:53;17.80;;;7.90;;
2111;SDS011;1062;52.538;13.400;2023-02-28T05:26:20;7.90;;;4.80;;
2111;SDS011;1062;52.538;13.400;2023-02-28T05:28:45;11.90;;;6.30;;
2111;SDS011;1062;52.538;13.400;2023-02-28T05:31:11;12.83;;;7.47;;
2111;SDS011;1062;52.538;13.400;2023-02-28T05:33:37;13.30;;;6.40;;
2111;SDS011;1062;52.538;13.400;2023-02-28T05:36:03;10.73;;;6.03;;
2111;SDS011;1062;52.538;13.400;2023-02-28T05:38:29;10.20;;;5.07;;
2111;SDS011;1062;52.538;13.400;2023-02-28T05:40:54;10.37;;;6.67;;
2111;SDS011;1062;52.538;13.400;2023-02-28T05:43:21;12.77;;;6.10;;
2111;SDS011;1062;52.538;13.400;2023-02-28T05:45:46;8.00;;;5.17;;
2111;SDS011;1062;52.538;13.400;2023-02-28T05:48:12;9.13;;;5.43;;
2111;SDS011;1062;52.538;13.400;2023-02-28T05:50:38;7.10;;;5.13;;
2111;SDS011;1062;52.538;13.400;2023-02-28T05:53:03;10.80;;;4.40;;
2111;SDS011;1062;52.538;13.400;2023-02-28T05:55:29;8.87;;;6.60;;
2111;SDS011;1062;52.538;13.400;2023-02-28T05:57:55;10.40;;;6.30;;
2111;SDS011;1062;52.538;13.400;2023-02-28T06:00:21;10.87;;;5.17;;
2111;SDS011;1062;52.538;13.400;2023-02-28T06:02:47;7.40;;;5.07;;
2111;SDS011;1062;52.538;13.400;2023-02-28T06:05:14;9.43;;;5.83;;
2111;SDS011;1062;52.538;13.400;2023-02-28T06:07:43;7.40;;;5.30;;
2111;SDS011;1062;52.538;13.400;2023-02-28T06:10:09;8.90;;;5.37;;
2111;SDS011;1062;52.538;13.400;2023-02-28T06:12:36;7.23;;;4.40;;
2111;SDS011;1062;52.538;13.400;2023-02-28T06:15:02;7.23;;;5.77;;
2111;SDS011;1062;52.538;13.400;2023-02-28T06:17:28;6.17;;;4.70;;
2111;SDS011;1062;52.538;13.400;2023-02-28T06:19:54;6.73;;;4.20;;
2111;SDS011;1062;52.538;13.400;2023-02-28T06:22:19;9.53;;;6.37;;
2111;SDS011;1062;52.538;13.400;2023-02-28T06:24:46;6.10;;;5.17;;
2111;SDS011;1062;52.538;13.400;2023-02-28T06:27:12;6.93;;;4.97;;
2111;SDS011;1062;52.538;13.400;2023-02-28T06:29:37;9.13;;;6.20;;
2111;SDS011;1062;52.538;13.400;2023-02-28T06:32:05;7.60;;;5.27;;
2111;SDS011;1062;52.538;13.400;2023-02-28T06:34:31;8.03;;;4.13;;
2111;SDS011;1062;52.538;13.400;2023-02-28T06:36:58;8.70;;;4.67;;
2111;SDS011;1062;52.538;13.400;2023-02-28T06:39:27;7.40;;;4.80;;
2111;SDS011;1062;52.538;13.400;2023-02-28T06:41:56;4.67;;;4.17;;
2111;SDS011;1062;52.538;13.400;2023-02-28T06:44:22;6.77;;;5.10;;
2111;SDS011;1062;52.538;13.400;2023-02-28T06:46:49;9.10;;;6.00;;
2111;SDS011;1062;52.538;13.400;2023-02-28T06:49:14;10.50;;;8.17;;
2111;SDS011;1062;52.538;13.400;2023-02-28T06:51:41;12.17;;;6.10;;
2111;SDS011;1062;52.538;13.400;2023-02-28T06:54:10;8.63;;;7.00;;
2111;SDS011;1062;52.538;13.400;2023-02-28T06:56:36;10.57;;;7.37;;
2111;SDS011;1062;52.538;13.400;2023-02-28T06:59:02;9.10;;;6.60;;
2111;SDS011;1062;52.538;13.400;2023-02-28T07:01:28;10.57;;;6.30;;
2111;SDS011;1062;52.538;13.400;2023-02-28T07:03:54;9.73;;;7.20;;
2111;SDS011;1062;52.538;13.400;2023-02-28T07:06:23;16.27;;;8.30;;
2111;SDS011;1062;52.538;13.400;2023-02-28T07:08:49;9.13;;;6.40;;
2111;SDS011;1062;52.538;13.400;2023-02-28T07:11:15;8.23;;;6.67;;
2111;SDS011;1062;52.538;13.400;2023-02-28T07:13:41;11.43;;;6.67;;
2111;SDS011;1062;52.538;13.400;2023-02-28T07:16:08;13.23;;;6.83;;
2111;SDS011;1062;52.538;13.400;2023-02-28T07:18:35;8.83;;;5.40;;
2111;SDS011;1062;52.538;13.400;2023-02-28T07:21:02;7.10;;;6.00;;
2111;SDS011;1062;52.538;13.400;2023-02-28T07:23:33;10.07;;;7.40;;
2111;SDS011;1062;52.538;13.400;2023-02-28T07:25:58;15.13;;;7.27;;
2111;SDS011;1062;52.538;13.400;2023-02-28T07:28:24;10.17;;;6.73;;
2111;SDS011;1062;52.538;13.400;2023-02-28T07:30:50;11.00;;;7.70;;
2111;SDS011;1062;52.538;13.400;2023-02-28T07:33:16;15.17;;;8.10;;
2111;SDS011;1062;52.538;13.400;2023-02-28T07:35:43;10.60;;;6.30;;
2111;SDS011;1062;52.538;13.400;2023-02-28T07:38:09;9.80;;;6.30;;
2111;SDS011;1062;52.538;13.400;2023-02-28T07:40:34;12.63;;;8.03;;
2111;SDS011;1062;52.538;13.400;2023-02-28T07:43:01;7.70;;;6.27;;
2111;SDS011;1062;52.538;13.400;2023-02-28T07:45:28;8.63;;;6.00;;
2111;SDS011;1062;52.538;13.400;2023-02-28T07:47:54;9.57;;;7.13;;
2111;SDS011;1062;52.538;13.400;2023-02-28T07:50:20;8.70;;;5.87;;
2111;SDS011;1062;52.538;13.400;2023-02-28T07:52:46;13.33;;;6.50;;
2111;SDS011;1062;52.538;13.400;2023-02-28T07:55:12;13.20;;;6.23;;
2111;SDS011;1062;52.538;13.400;2023-02-28T07:57:39;8.20;;;6.07;;
2111;SDS011;1062;52.538;13.400;2023-02-28T08:00:06;7.10;;;5.40;;
2111;SDS011;1062;52.538;13.400;2023-02-28T08:02:37;8.70;;;5.13;;
2111;SDS011;1062;52.538;13.400;2023-02-28T08:05:03;6.57;;;4.77;;
2111;SDS011;1062;52.538;13.400;2023-02-28T08:07:30;4.77;;;3.90;;
2111;SDS011;1062;52.538;13.400;2023-02-28T08:09:56;7.50;;;4.83;;
2111;SDS011;1062;52.538;13.400;2023-02-28T08:12:21;12.00;;;4.40;;
2111;SDS011;1062;52.538;13.400;2023-02-28T08:14:47;4.40;;;3.37;;
2111;SDS011;1062;52.538;13.400;2023-02-28T08:17:12;5.40;;;3.77;;
2111;SDS011;1062;52.538;13.400;2023-02-28T08:19:38;6.10;;;4.20;;
2111;SDS011;1062;52.538;13.400;2023-02-28T08:22:04;4.30;;;2.77;;
2111;SDS011;1062;52.538;13.400;2023-02-28T08:24:30;5.40;;;3.30;;
2111;SDS011;1062;52.538;13.400;2023-02-28T08:26:56;4.73;;;3.53;;
2111;SDS011;1062;52.538;13.400;2023-02-28T08:29:21;6.70;;;3.20;;
2111;SDS011;1062;52.538;13.400;2023-02-28T08:31:48;3.50;;;2.70;;
2111;SDS011;1062;52.538;13.400;2023-02-28T08:34:14;4.50;;;2.60;;
2111;SDS011;1062;52.538;13.400;2023-02-28T08:36:41;3.17;;;2.03;;
2111;SDS011;1062;52.538;13.400;2023-02-28T08:39:09;4.20;;;2.60;;
2111;SDS011;1062;52.538;13.400;2023-02-28T08:41:35;2.17;;;1.97;;
2111;SDS011;1062;52.538;13.400;2023-02-28T08:44:01;3.20;;;2.47;;
2111;SDS011;1062;52.538;13.400;2023-02-28T08:46:27;3.67;;;2.60;;
2111;SDS011;1062;52.538;13.400;2023-02-28T08:48:53;2.80;;;2.10;;
2111;SDS011;1062;52.538;13.400;2023-02-28T08:51:20;2.67;;;2.23;;
2111;SDS011;1062;52.538;13.400;2023-02-28T08:53:51;3.60;;;2.57;;
2111;SDS011;1062;52.538;13.400;2023-02-28T08:56:18;4.90;;;3.10;;
2111;SDS011;1062;52.538;13.400;2023-02-28T08:58:45;3.67;;;2.13;;
2111;SDS011;1062;52.538;13.400;2023-02-28T09:01:13;2.17;;;1.60;;
2111;SDS011;1062;52.538;13.400;2023-02-28T09:03:44;4.77;;;1.83;;
2111;SDS011;1062;52.538;13.400;2023-02-28T09:06:11;3.10;;;1.60;;
2111;SDS011;1062;52.538;13.400;2023-02-28T09:08:37;2.13;;;1.93;;
2111;SDS011;1062;52.538;13.400;2023-02-28T09:11:03;4.40;;;1.83;;
2111;SDS011;1062;52.538;13.400;2023-02-28T09:13:30;2.43;;;2.23;;
2111;SDS011;1062;52.538;13.400;2023-02-28T09:15:57;2.60;;;2.13;;
2111;SDS011;1062;52.538;13.400;2023-02-28T09:18:24;4.33;;;2.33;;
2111;SDS011;1062;52.538;13.400;2023-02-28T09:20:49;2.70;;;1.50;;
2111;SDS011;1062;52.538;13.400;2023-02-28T09:23:15;4.70;;;1.97;;
2111;SDS011;1062;52.538;13.400;2023-02-28T09:25:45;1.83;;;1.60;;
2111;SDS011;1062;52.538;13.400;2023-02-28T09:28:16;2.87;;;1.80;;
2111;SDS011;1062;52.538;13.400;2023-02-28T09:30:42;1.97;;;1.77;;
2111;SDS011;1062;52.538;13.400;2023-02-28T09:33:10;2.33;;;1.70;;
2111;SDS011;1062;52.538;13.400;2023-02-28T09:35:36;2.20;;;1.73;;
2111;SDS011;1062;52.538;13.400;2023-02-28T09:38:02;2.60;;;1.67;;
2111;SDS011;1062;52.538;13.400;2023-02-28T09:40:29;2.20;;;1.73;;
2111;SDS011;1062;52.538;13.400;2023-02-28T09:42:56;2.20;;;2.00;;
2111;SDS011;1062;52.538;13.400;2023-02-28T09:47:56;1.87;;;1.67;;
2111;SDS011;1062;52.538;13.400;2023-02-28T09:53:02;1.60;;;1.50;;
2111;SDS011;1062;52.538;13.400;2023-02-28T09:55:51;3.50;;;1.90;;
2111;SDS011;1062;52.538;13.400;2023-02-28T10:03:46;1.63;;;1.40;;
2111;SDS011;1062;52.538;13.400;2023-02-28T10:06:36;1.87;;;1.40;;
2111;SDS011;1062;52.538;13.400;2023-02-28T10:09:15;2.03;;;1.70;;
2111;SDS011;1062;52.538;13.400;2023-02-28T10:11:50;2.60;;;1.87;;
2111;SDS011;1062;52.538;13.400;2023-02-28T10:16:49;2.13;;;1.67;;
2111;SDS011;1062;52.538;13.400;2023-02-28T10:24:28;2.90;;;2.63;;
2111;SDS011;1062;52.538;13.400;2023-02-28T10:27:19;2.37;;;1.80;;
2111;SDS011;1062;52.538;13.400;2023-02-28T10:29:51;1.40;;;1.30;;
2111;SDS011;1062;52.538;13.400;2023-02-28T10:32:19;2.67;;;2.10;;
2111;SDS011;1062;52.538;13.400;2023-02-28T10:34:57;5.73;;;2.20;;
2111;SDS011;1062;52.538;13.400;2023-02-28T10:37:44;2.73;;;2.10;;
2111;SDS011;1062;52.538;13.400;2023-02-28T10:42:47;4.10;;;1.90;;
2111;SDS011;1062;52.538;13.400;2023-02-28T10:45:24;2.30;;;1.80;;
2111;SDS011;1062;52.538;13.400;2023-02-28T10:50:32;2.73;;;1.57;;
2111;SDS011;1062;52.538;13.400;2023-02-28T10:53:15;1.70;;;1.60;;
2111;SDS011;1062;52.538;13.400;2023-02-28T10:55:44;2.20;;;1.63;;
2111;SDS011;1062;52.538;13.400;2023-02-28T10:58:22;2.03;;;1.83;;
2111;SDS011;1062;52.538;13.400;2023-02-28T11:00:52;2.00;;;1.30;;
2111;SDS011;1062;52.538;13.400;2023-02-28T11:03:29;1.63;;;1.43;;
2111;SDS011;1062;52.538;13.400;2023-02-28T11:05:57;1.90;;;1.70;;
2111;SDS011;1062;52.538;13.400;2023-02-28T11:08:23;2.60;;;1.50;;
2111;SDS011;1062;52.538;13.400;2023-02-28T11:10:58;1.90;;;1.73;;
2111;SDS011;1062;52.538;13.400;2023-02-28T11:13:27;2.93;;;1.70;;
2111;SDS011;1062;52.538;13.400;2023-02-28T11:15:57;2.50;;;1.43;;
2111;SDS011;1062;52.538;13.400;2023-02-28T11:18:35;2.90;;;2.70;;
2111;SDS011;1062;52.538;13.400;2023-02-28T11:21:07;2.13;;;1.97;;
2111;SDS011;1062;52.538;13.400;2023-02-28T11:23:35;2.40;;;1.70;;
2111;SDS011;1062;52.538;13.400;2023-02-28T11:26:05;1.80;;;1.70;;
2111;SDS011;1062;52.538;13.400;2023-02-28T11:28:36;2.23;;;2.03;;
2111;SDS011;1062;52.538;13.400;2023-02-28T11:31:14;2.00;;;1.90;;
2111;SDS011;1062;52.538;13.400;2023-02-28T11:38:52;1.97;;;1.87;;
2111;SDS011;1062;52.538;13.400;2023-02-28T11:41:32;1.67;;;1.57;;
2111;SDS011;1062;52.538;13.400;2023-02-28T11:49:35;2.50;;;2.27;;
2111;SDS011;1062;52.538;13.400;2023-02-28T11:57:56;3.47;;;2.30;;
2111;SDS011;1062;52.538;13.400;2023-02-28T12:03:28;4.30;;;2.33;;
2111;SDS011;1062;52.538;13.400;2023-02-28T12:11:52;2.40;;;2.10;;
2111;SDS011;1062;52.538;13.400;2023-02-28T12:28:35;2.73;;;2.03;;
2111;SDS011;1062;52.538;13.400;2023-02-28T12:31:28;2.00;;;1.87;;
2111;SDS011;1062;52.538;13.400;2023-02-28T12:33:57;3.10;;;2.37;;
2111;SDS011;1062;52.538;13.400;2023-02-28T12:36:28;3.30;;;3.00;;
2111;SDS011;1062;52.538;13.400;2023-02-28T12:39:00;3.10;;;2.50;;
2111;SDS011;1062;52.538;13.400;2023-02-28T12:44:21;2.60;;;2.40;;
2111;SDS011;1062;52.538;13.400;2023-02-28T12:47:09;2.30;;;2.03;;
2111;SDS011;1062;52.538;13.400;2023-02-28T12:49:42;4.10;;;2.70;;
2111;SDS011;1062;52.538;13.400;2023-02-28T12:52:14;2.90;;;2.57;;
2111;SDS011;1062;52.538;13.400;2023-02-28T12:55:00;3.50;;;2.47;;
2111;SDS011;1062;52.538;13.400;2023-02-28T12:57:42;2.77;;;2.50;;
2111;SDS011;1062;52.538;13.400;2023-02-28T13:00:19;2.63;;;2.33;;
2111;SDS011;1062;52.538;13.400;2023-02-28T13:02:57;2.93;;;2.60;;
2111;SDS011;1062;52.538;13.400;2023-02-28T13:11:01;6.87;;;2.50;;
2111;SDS011;1062;52.538;13.400;2023-02-28T13:13:28;3.30;;;2.10;;
2111;SDS011;1062;52.538;13.400;2023-02-28T13:21:01;6.40;;;2.20;;
2111;SDS011;1062;52.538;13.400;2023-02-28T13:26:22;5.37;;;2.80;;
2111;SDS011;1062;52.538;13.400;2023-02-28T13:31:14;4.60;;;1.97;;
2111;SDS011;1062;52.538;13.400;2023-02-28T13:38:47;3.43;;;2.63;;
2111;SDS011;1062;52.538;13.400;2023-02-28T13:46:31;2.70;;;1.90;;
2111;SDS011;1062;52.538;13.400;2023-02-28T14:05:18;2.40;;;1.70;;
2111;SDS011;1062;52.538;13.400;2023-02-28T14:07:54;3.70;;;1.70;;
2111;SDS011;1062;52.538;13.400;2023-02-28T14:10:27;3.83;;;2.10;;
2111;SDS011;1062;52.538;13.400;2023-02-28T14:16:02;2.70;;;2.23;;
2111;SDS011;1062;52.538;13.400;2023-02-28T14:24:22;2.97;;;2.67;;
2111;SDS011;1062;52.538;13.400;2023-02-28T14:27:03;3.60;;;1.83;;
2111;SDS011;1062;52.538;13.400;2023-02-28T14:32:21;4.87;;;3.00;;
2111;SDS011;1062;52.538;13.400;2023-02-28T14:37:38;3.50;;;2.40;;
2111;SDS011;1062;52.538;13.400;2023-02-28T14:40:15;6.40;;;3.70;;
2111;SDS011;1062;52.538;13.400;2023-02-28T14:42:49;3.27;;;2.23;;
2111;SDS011;1062;52.538;13.400;2023-02-28T14:45:22;6.53;;;2.23;;
2111;SDS011;1062;52.538;13.400;2023-02-28T14:47:48;5.37;;;3.10;;
2111;SDS011;1062;52.538;13.400;2023-02-28T14:50:23;2.40;;;2.20;;
2111;SDS011;1062;52.538;13.400;2023-02-28T14:52:52;3.90;;;2.67;;
2111;SDS011;1062;52.538;13.400;2023-02-28T14:55:20;3.23;;;2.33;;
2111;SDS011;1062;52.538;13.400;2023-02-28T14:57:51;4.03;;;1.97;;
2111;SDS011;1062;52.538;13.400;2023-02-28T15:00:42;3.50;;;2.23;;
2111;SDS011;1062;52.538;13.400;2023-02-28T15:03:19;2.40;;;1.73;;
2111;SDS011;1062;52.538;13.400;2023-02-28T15:05:58;3.03;;;2.17;;
2111;SDS011;1062;52.538;13.400;2023-02-28T15:08:28;6.10;;;2.60;;
2111;SDS011;1062;52.538;13.400;2023-02-28T15:11:01;2.47;;;1.90;;
2111;SDS011;1062;52.538;13.400;2023-02-28T15:13:44;5.53;;;2.37;;
2111;SDS011;1062;52.538;13.400;2023-02-28T15:16:13;2.60;;;2.27;;
2111;SDS011;1062;52.538;13.400;2023-02-28T15:21:20;2.90;;;2.60;;
2111;SDS011;1062;52.538;13.400;2023-02-28T15:24:03;3.07;;;2.77;;
2111;SDS011;1062;52.538;13.400;2023-02-28T15:26:33;3.70;;;2.50;;
2111;SDS011;1062;52.538;13.400;2023-02-28T15:29:10;6.37;;;3.10;;
2111;SDS011;1062;52.538;13.400;2023-02-28T15:31:40;2.80;;;2.60;;
2111;SDS011;1062;52.538;13.400;2023-02-28T15:34:18;3.60;;;2.50;;
2111;SDS011;1062;52.538;13.400;2023-02-28T15:36:46;4.30;;;3.83;;
2111;SDS011;1062;52.538;13.400;2023-02-28T15:39:19;4.23;;;2.20;;
2111;SDS011;1062;52.538;13.400;2023-02-28T15:41:50;4.97;;;3.17;;
2111;SDS011;1062;52.538;13.400;2023-02-28T15:46:57;2.60;;;2.17;;
2111;SDS011;1062;52.538;13.400;2023-02-28T15:49:29;2.20;;;2.00;;
2111;SDS011;1062;52.538;13.400;2023-02-28T15:52:21;5.60;;;3.13;;
2111;SDS011;1062;52.538;13.400;2023-02-28T15:54:53;4.70;;;2.50;;
2111;SDS011;1062;52.538;13.400;2023-02-28T15:57:20;2.60;;;2.40;;
2111;SDS011;1062;52.538;13.400;2023-02-28T15:59:53;4.67;;;2.77;;
2111;SDS011;1062;52.538;13.400;2023-02-28T16:02:35;3.00;;;2.27;;
2111;SDS011;1062;52.538;13.400;2023-02-28T16:07:31;3.73;;;2.17;;
2111;SDS011;1062;52.538;13.400;2023-02-28T16:09:56;3.77;;;2.67;;
2111;SDS011;1062;52.538;13.400;2023-02-28T16:12:25;2.97;;;2.63;;
2111;SDS011;1062;52.538;13.400;2023-02-28T16:14:53;4.73;;;2.13;;
2111;SDS011;1062;52.538;13.400;2023-02-28T16:17:22;3.70;;;2.73;;
2111;SDS011;1062;52.538;13.400;2023-02-28T16:19:52;3.83;;;2.87;;
2111;SDS011;1062;52.538;13.400;2023-02-28T16:22:19;3.67;;;3.27;;
2111;SDS011;1062;52.538;13.400;2023-02-28T16:24:45;6.80;;;3.10;;
2111;SDS011;1062;52.538;13.400;2023-02-28T16:27:15;3.90;;;2.93;;
2111;SDS011;1062;52.538;13.400;2023-02-28T16:29:49;5.67;;;3.30;;
2111;SDS011;1062;52.538;13.400;2023-02-28T16:32:15;4.10;;;3.03;;
2111;SDS011;1062;52.538;13.400;2023-02-28T16:34:42;3.20;;;2.60;;
2111;SDS011;1062;52.538;13.400;2023-02-28T16:37:12;4.37;;;3.97;;
2111;SDS011;1062;52.538;13.400;2023-02-28T16:39:39;5.07;;;2.83;;
2111;SDS011;1062;52.538;13.400;2023-02-28T16:42:06;3.90;;;3.60;;
2111;SDS011;1062;52.538;13.400;2023-02-28T16:44:35;2.53;;;2.33;;
2111;SDS011;1062;52.538;13.400;2023-02-28T16:47:01;3.73;;;3.37;;
2111;SDS011;1062;52.538;13.400;2023-02-28T16:49:28;3.40;;;2.90;;
2111;SDS011;1062;52.538;13.400;2023-02-28T16:51:54;3.57;;;3.10;;
2111;SDS011;1062;52.538;13.400;2023-02-28T16:54:19;2.40;;;2.13;;
2111;SDS011;1062;52.538;13.400;2023-02-28T16:56:46;7.00;;;3.00;;
2111;SDS011;1062;52.538;13.400;2023-02-28T16:59:12;7.20;;;3.03;;
2111;SDS011;1062;52.538;13.400;2023-02-28T17:01:39;6.13;;;3.40;;
2111;SDS011;1062;52.538;13.400;2023-02-28T17:04:05;6.00;;;3.10;;
2111;SDS011;1062;52.538;13.400;2023-02-28T17:06:30;2.70;;;2.50;;
2111;SDS011;1062;52.538;13.400;2023-02-28T17:08:59;3.97;;;3.10;;
2111;SDS011;1062;52.538;13.400;2023-02-28T17:11:25;5.10;;;3.80;;
2111;SDS011;1062;52.538;13.400;2023-02-28T17:13:51;3.33;;;3.03;;
2111;SDS011;1062;52.538;13.400;2023-02-28T17:16:28;4.07;;;2.80;;
2111;SDS011;1062;52.538;13.400;2023-02-28T17:19:00;3.07;;;2.70;;
2111;SDS011;1062;52.538;13.400;2023-02-28T17:21:27;6.37;;;3.93;;
2111;SDS011;1062;52.538;13.400;2023-02-28T17:23:54;6.93;;;3.70;;
2111;SDS011;1062;52.538;13.400;2023-02-28T17:26:20;5.53;;;3.90;;
2111;SDS011;1062;52.538;13.400;2023-02-28T17:28:47;7.07;;;3.53;;
2111;SDS011;1062;52.538;13.400;2023-02-28T17:31:14;3.00;;;2.70;;
2111;SDS011;1062;52.538;13.400;2023-02-28T17:33:40;3.90;;;3.13;;
2111;SDS011;1062;52.538;13.400;2023-02-28T17:36:06;5.60;;;3.70;;
2111;SDS011;1062;52.538;13.400;2023-02-28T17:38:37;8.90;;;4.07;;
2111;SDS011;1062;52.538;13.400;2023-02-28T17:41:03;5.20;;;3.73;;
2111;SDS011;1062;52.538;13.400;2023-02-28T17:43:29;6.90;;;3.47;;
2111;SDS011;1062;52.538;13.400;2023-02-28T17:45:54;5.97;;;3.30;;
2111;SDS011;1062;52.538;13.400;2023-02-28T17:48:21;6.20;;;3.90;;
2111;SDS011;1062;52.538;13.400;2023-02-28T17:50:47;6.03;;;3.67;;
2111;SDS011;1062;52.538;13.400;2023-02-28T17:53:12;4.63;;;3.13;;
2111;SDS011;1062;52.538;13.400;2023-02-28T17:55:38;5.47;;;3.33;;